キエフ/ボリースピリ の空港の天気 - METARとTAF

ボリースピリ国際空港(キエフ) ( UKBB / KBP ) - ウクライナ ボリスピリ (キエフ近郊)
飛行場実況気象(Metar)
観測時間07/19 06:30 EEST (07/19 03:30 UTC)
風向・風速西南西 3m/s
視程10km以上
天気現象
なし
気温14℃
湿度88%
気圧1014hPa
METARUKBB 190330Z 24003MPS 220V280 CAVOK 14/12 Q1014 R88/CLRD// NOSIG
過去の天気等 Google飛行場航空写真 Wunderground天気予報

過去48時間のMETAR

飛行場予報(TAF)
発表時間: 7/19 02:08 EEST (7/18 23:08 UTC)
予報対象時間: 19日3時 EEST ~ 20日3時 EEST
風向・風速西南西 3m/s 瞬間風速 8m/s
視程10km以上
全天の8割程度の雲 雲底高度 910m
19日3時 EEST ~ 19日8時 EEST に一時的に
視程2000m
天気現象もや
全天の8割程度の雲 雲底高度 210m
19日3時 EEST ~ 19日8時 EEST に 確率 40% で一時的に
視程500m
天気現象
全天を覆う雲 鉛直視程 90m
19日8時 EEST ~ 19日10時 EEST に徐々に
風向・風速西 5m/s 瞬間風速 10m/s
全天の4割程度の積乱雲 雲底高度 610m
TAF UKBB 182308Z 1900/1924 25003G08MPS 9999 BKN030
TEMPO 1900/1905 2000 BR BKN007
PROB40 TEMPO 1900/1905 0500 FG VV003
BECMG 1905/1907 27005G10MPS SCT020CB